Terminal Aerodrome Forecast
Issued by NWS Lake Charles, LA

Home | Current Version | Previous Version | Text Only | Print | Product List | Glossary On
Versions: 1 2 3 4 5 6 7 8 9 10 11 12 13 14 15 16 17
000
FTUS44 KLCH 302320
TAFAEX
TAF
KAEX 302320Z 0100/0124 20008KT P6SM VCTS FEW020CB SCT035 OVC150
     FM010200 19005KT P6SM FEW015 BKN250
     FM011500 24008KT P6SM VCSH SCT025 PROB30 0118/0124 VRB15G25KT
      4SM TSRA BKN035CB=

USA.gov is the U.S. government's official web portal to all federal, state and local government web resources and services.